createdAt,value
2018-10-01T00:18:06.615Z,7.50
2018-10-01T00:20:41.687Z,7.67
2018-10-01T00:23:12.403Z,7.45
2018-10-01T00:25:42.437Z,6.57
2018-10-01T00:28:12.801Z,7.00
2018-10-01T00:59:39.289Z,5.57
2018-10-01T01:02:09.286Z,10.93
2018-10-01T01:04:39.167Z,7.33
2018-10-01T01:07:09.479Z,6.57
2018-10-01T01:09:39.608Z,7.03
2018-10-01T01:29:31.453Z,4.80
2018-10-01T01:32:01.206Z,2.83
2018-10-01T01:34:30.920Z,2.90
2018-10-01T01:37:01.826Z,5.07
2018-10-01T01:56:54.201Z,3.13
2018-10-01T01:59:24.462Z,3.90
2018-10-01T02:01:54.208Z,4.87
2018-10-01T02:21:46.183Z,6.27
2018-10-01T02:41:40.237Z,3.03
2018-10-01T02:44:10.379Z,2.70
2018-10-01T02:46:40.062Z,2.80
2018-10-01T02:49:09.780Z,3.50
2018-10-01T02:51:45.016Z,3.23
2018-10-01T03:11:36.378Z,4.22
2018-10-01T03:14:07.432Z,4.97
2018-10-01T03:16:37.469Z,5.00
2018-10-01T03:19:08.120Z,4.10
2018-10-01T03:21:38.856Z,4.90
2018-10-01T03:24:09.349Z,2.77
2018-10-01T03:26:39.077Z,5.50
2018-10-01T03:29:09.004Z,3.93
2018-10-01T03:31:39.311Z,4.93
2018-10-01T03:34:09.279Z,2.97
2018-10-01T03:36:39.167Z,5.10
2018-10-01T03:39:10.502Z,4.53
2018-10-01T03:41:40.700Z,3.20
2018-10-01T03:44:10.879Z,2.53
2018-10-01T03:46:41.102Z,3.03
2018-10-01T03:49:10.861Z,2.90
2018-10-01T03:51:40.641Z,4.27
2018-10-01T03:54:10.791Z,4.40
2018-10-01T03:56:40.780Z,5.23
2018-10-01T03:59:10.640Z,3.53
2018-10-01T04:01:40.456Z,3.07
2018-10-01T04:04:10.376Z,3.20
2018-10-01T04:24:03.589Z,3.00
2018-10-01T04:26:33.085Z,3.13
2018-10-01T04:29:02.981Z,6.30
2018-10-01T05:00:31.625Z,6.17
2018-10-01T05:03:01.593Z,6.57
2018-10-01T05:05:31.407Z,13.17
2018-10-01T05:08:01.542Z,16.03
2018-10-01T05:10:31.447Z,8.33
2018-10-01T05:13:01.171Z,8.87
2018-10-01T05:15:31.184Z,7.10
2018-10-01T05:18:00.940Z,7.27
2018-10-01T05:20:30.743Z,6.60
2018-10-01T05:23:00.538Z,5.87
2018-10-01T05:25:30.252Z,6.10
2018-10-01T05:28:00.177Z,5.43
2018-10-01T05:47:51.055Z,8.70
2018-10-01T05:50:20.977Z,5.43
2018-10-01T05:52:50.810Z,7.50
2018-10-01T06:12:42.608Z,8.50
2018-10-01T06:15:12.723Z,7.90
2018-10-01T06:17:42.668Z,8.93
2018-10-01T06:20:12.518Z,5.73
2018-10-01T06:22:42.449Z,7.63
2018-10-01T06:25:12.455Z,8.60
2018-10-01T06:27:42.182Z,6.53
2018-10-01T06:30:12.038Z,9.30
2018-10-01T06:32:41.970Z,7.97
2018-10-01T06:35:12.256Z,7.60
2018-10-01T06:37:42.125Z,6.57
2018-10-01T06:40:11.989Z,10.23
2018-10-01T06:42:42.219Z,8.23
2018-10-01T06:45:11.974Z,13.57
2018-10-01T06:47:41.762Z,7.33
2018-10-01T06:50:11.974Z,6.77
2018-10-01T07:10:03.613Z,10.20
2018-10-01T07:12:33.286Z,7.43
2018-10-01T07:15:03.248Z,5.40
2018-10-01T07:17:32.786Z,5.80
2018-10-01T07:20:02.871Z,6.63
2018-10-01T07:22:32.573Z,9.97
2018-10-01T07:42:25.242Z,4.03
2018-10-01T07:44:55.123Z,6.00
2018-10-01T07:47:24.834Z,6.10
2018-10-01T07:49:54.772Z,6.67
2018-10-01T07:52:24.673Z,3.47
2018-10-01T08:12:17.810Z,3.17
2018-10-01T08:14:47.813Z,3.50
2018-10-01T08:17:17.694Z,2.90
2018-10-01T08:37:10.779Z,2.87
2018-10-01T08:39:40.739Z,7.07
2018-10-01T08:42:10.683Z,4.77
2018-10-01T08:44:41.055Z,2.23
2018-10-01T08:47:11.033Z,3.80
2018-10-01T08:49:47.173Z,5.33
2018-10-01T08:52:22.994Z,5.03
2018-10-01T08:54:53.002Z,3.33
2018-10-01T08:57:22.708Z,4.73
2018-10-01T08:59:52.640Z,4.13
2018-10-01T09:02:22.612Z,4.40
2018-10-01T09:04:52.672Z,4.00
2018-10-01T09:07:22.582Z,4.67
2018-10-01T09:09:52.482Z,3.77
2018-10-01T09:12:22.410Z,2.10
2018-10-01T09:14:52.291Z,3.40
2018-10-01T09:17:22.802Z,4.50
2018-10-01T09:19:52.713Z,8.53
2018-10-01T09:22:22.801Z,5.47
2018-10-01T09:24:52.972Z,2.80
2018-10-01T09:27:22.658Z,3.27
2018-10-01T09:47:15.291Z,2.47
2018-10-01T09:49:45.047Z,5.03
2018-10-01T09:52:15.137Z,2.27
2018-10-01T09:54:45.001Z,2.40
2018-10-01T09:57:14.673Z,6.00
2018-10-01T09:59:44.464Z,7.60
2018-10-01T10:02:14.564Z,3.17
2018-10-01T10:04:44.254Z,2.40
2018-10-01T10:07:14.178Z,1.57
2018-10-01T10:09:44.098Z,1.50
2018-10-01T10:12:13.899Z,3.37
2018-10-01T10:14:43.724Z,2.37
2018-10-01T10:17:13.643Z,2.33
2018-10-01T10:37:05.817Z,2.17
2018-10-01T10:56:58.160Z,3.63
2018-10-01T10:59:27.867Z,2.53
2018-10-01T11:01:57.638Z,2.00
2018-10-01T11:21:49.910Z,2.40
2018-10-01T11:24:19.840Z,5.03
2018-10-01T11:26:49.726Z,5.00
2018-10-01T11:29:19.744Z,2.07
2018-10-01T11:31:49.703Z,5.57
2018-10-01T11:34:19.067Z,4.87
2018-10-01T11:36:49.096Z,1.87
2018-10-01T11:56:40.406Z,1.87
2018-10-01T11:59:10.235Z,3.40
2018-10-01T12:01:39.777Z,1.93
2018-10-01T12:04:09.686Z,3.43
2018-10-01T12:06:39.775Z,1.80
2018-10-01T12:09:10.949Z,3.33
2018-10-01T12:11:40.987Z,3.27
2018-10-01T12:14:11.368Z,1.47
2018-10-01T12:16:40.995Z,4.67
2018-10-01T12:19:11.561Z,4.53
2018-10-01T12:39:04.867Z,2.53
2018-10-01T12:41:34.456Z,3.53
2018-10-01T12:44:04.195Z,1.53
2018-10-01T12:46:33.577Z,2.93
2018-10-01T12:49:03.914Z,2.17
2018-10-01T12:51:33.411Z,2.23
2018-10-01T12:54:03.329Z,3.60
2018-10-01T12:56:32.983Z,2.90
2018-10-01T12:59:02.536Z,5.90
2018-10-01T13:01:32.066Z,4.17
2018-10-01T13:04:01.942Z,1.73
2018-10-01T13:06:31.510Z,4.80
2018-10-01T13:09:01.171Z,2.20
2018-10-01T13:11:31.325Z,3.47
2018-10-01T13:14:01.125Z,6.43
2018-10-01T13:16:30.830Z,5.60
2018-10-01T13:19:00.813Z,3.70
2018-10-01T13:21:30.658Z,1.43
2018-10-01T13:41:22.570Z,1.20
2018-10-01T14:01:14.380Z,1.40
2018-10-01T14:03:44.398Z,3.03
2018-10-01T14:06:14.102Z,2.53
2018-10-01T14:08:43.891Z,4.37
2018-10-01T14:11:13.943Z,4.27
2018-10-01T14:13:43.593Z,3.03
2018-10-01T14:16:13.672Z,3.90
2018-10-01T14:18:43.709Z,4.87
2018-10-01T14:21:13.419Z,2.97
2018-10-01T14:23:43.233Z,13.70
2018-10-01T14:26:12.815Z,6.07
2018-10-01T14:28:42.725Z,4.70
2018-10-01T14:48:34.527Z,7.87
2018-10-01T14:51:04.529Z,1.23
2018-10-01T15:10:56.082Z,3.73
2018-10-01T15:13:25.830Z,4.43
2018-10-01T15:33:18.761Z,8.50
2018-10-01T15:35:48.337Z,4.23
2018-10-01T15:55:40.275Z,4.30
2018-10-01T15:58:10.060Z,2.00
2018-10-01T16:00:39.700Z,2.97
2018-10-01T16:03:09.647Z,1.90
2018-10-01T16:23:00.846Z,5.47
2018-10-01T16:25:30.929Z,7.67
2018-10-01T17:05:38.919Z,10.10
2018-10-01T17:08:09.460Z,10.03
2018-10-01T17:10:39.093Z,7.83
2018-10-01T17:13:09.754Z,15.13
2018-10-01T17:15:39.410Z,8.10
2018-10-01T17:18:09.234Z,11.03
2018-10-01T17:20:39.738Z,9.53
2018-10-01T17:23:09.137Z,6.30
2018-10-01T17:25:38.778Z,11.93
2018-10-01T17:28:09.325Z,7.37
2018-10-01T17:48:01.555Z,11.07
2018-10-01T17:50:31.975Z,8.53
2018-10-01T18:10:24.559Z,15.10
2018-10-01T18:30:16.886Z,13.23
2018-10-01T18:32:46.320Z,13.20
2018-10-01T18:35:15.801Z,8.77
2018-10-01T18:37:45.955Z,9.50
2018-10-01T18:40:15.533Z,16.93
2018-10-01T18:42:45.243Z,8.37
2018-10-01T18:45:15.248Z,10.33
2018-10-01T18:47:44.896Z,7.57
2018-10-01T18:50:14.623Z,8.33
2018-10-01T18:52:44.334Z,9.97
2018-10-01T18:55:14.099Z,8.80
2018-10-01T19:15:06.358Z,11.83
2018-10-01T19:17:35.782Z,9.40
2018-10-01T19:20:05.423Z,8.40
2018-10-01T19:39:57.658Z,7.73
2018-10-01T19:42:27.246Z,7.70
2018-10-01T19:44:57.107Z,10.63
2018-10-01T19:47:27.239Z,10.33
2018-10-01T19:49:56.786Z,10.57
2018-10-01T19:52:26.389Z,9.23
2018-10-01T19:54:56.369Z,11.03
2018-10-01T20:14:48.812Z,10.90
2018-10-01T20:17:19.019Z,8.73
2018-10-01T20:19:48.580Z,7.90
2018-10-01T20:22:18.227Z,9.40
2018-10-01T20:24:48.456Z,8.23
2018-10-01T20:27:18.808Z,9.80
2018-10-01T20:29:48.253Z,10.03
2018-10-01T20:32:17.809Z,9.37
2018-10-01T20:34:47.636Z,9.33
2018-10-01T20:37:17.296Z,8.23
2018-10-01T20:39:46.998Z,11.47
2018-10-01T20:42:16.863Z,11.17
2018-10-01T20:44:46.641Z,13.83
2018-10-01T20:47:16.404Z,12.47
2018-10-01T20:49:46.083Z,10.30
2018-10-01T20:52:15.628Z,11.53
2018-10-01T20:54:45.569Z,12.63
2018-10-01T20:57:15.501Z,13.07
2018-10-01T20:59:45.227Z,8.93
2018-10-01T21:02:15.075Z,9.40
2018-10-01T21:04:44.818Z,9.80
2018-10-01T21:07:14.534Z,10.83
2018-10-01T21:09:44.287Z,12.33
2018-10-01T21:12:14.131Z,10.27
2018-10-01T21:14:43.790Z,10.20
2018-10-01T21:17:13.790Z,9.93
2018-10-01T21:19:43.509Z,10.23
2018-10-01T21:22:13.173Z,9.70
2018-10-01T21:24:43.165Z,10.00
2018-10-01T21:27:12.742Z,6.97
2018-10-01T21:29:42.466Z,8.50
2018-10-01T21:32:12.244Z,9.33
2018-10-01T21:34:42.065Z,10.10
2018-10-01T21:37:11.884Z,8.10
2018-10-01T21:40:16.604Z,8.50
2018-10-01T21:42:46.538Z,8.73
2018-10-01T21:45:17.305Z,8.60
2018-10-01T21:47:46.831Z,8.30
2018-10-01T21:50:16.296Z,9.37
2018-10-01T21:52:46.002Z,8.37
2018-10-01T21:55:15.490Z,8.87
2018-10-01T21:57:44.988Z,10.47
2018-10-01T22:00:15.260Z,14.23
2018-10-01T22:02:44.855Z,11.67
2018-10-01T22:05:14.514Z,9.80
2018-10-01T22:07:44.426Z,12.13
2018-10-01T22:10:14.032Z,12.33
2018-10-01T22:12:43.577Z,9.37
2018-10-01T22:15:14.445Z,8.67
2018-10-01T22:17:44.340Z,8.87
2018-10-01T22:20:14.146Z,10.13
2018-10-01T22:22:44.075Z,12.37
2018-10-01T22:25:13.667Z,9.67
2018-10-01T22:27:43.223Z,10.33
2018-10-01T22:30:13.204Z,13.73
2018-10-01T22:32:42.899Z,14.33
2018-10-01T22:35:12.407Z,11.10
2018-10-01T22:37:42.356Z,11.23
2018-10-01T22:40:12.123Z,12.07
2018-10-01T22:42:41.726Z,11.30
2018-10-01T22:45:11.382Z,10.17
2018-10-01T22:47:40.652Z,11.43
2018-10-01T22:50:10.191Z,15.60
2018-10-01T22:52:39.716Z,11.60
2018-10-01T22:55:09.320Z,15.10
2018-10-01T22:57:39.206Z,11.43
2018-10-01T23:00:09.449Z,15.83
2018-10-01T23:02:39.038Z,12.53
2018-10-01T23:05:08.894Z,12.30
2018-10-01T23:07:38.802Z,12.60
2018-10-01T23:10:08.757Z,13.87
2018-10-01T23:12:38.364Z,16.03
2018-10-01T23:15:08.539Z,13.40
2018-10-01T23:17:38.150Z,11.33
2018-10-01T23:20:07.829Z,15.03
2018-10-01T23:22:37.649Z,11.30
2018-10-01T23:25:07.434Z,10.70
2018-10-01T23:27:37.267Z,10.73
2018-10-01T23:30:06.898Z,11.73
2018-10-01T23:32:36.375Z,10.03
2018-10-01T23:35:06.693Z,10.73
2018-10-01T23:37:36.448Z,8.70
2018-10-01T23:40:06.070Z,8.77
2018-10-01T23:42:35.610Z,10.27
2018-10-01T23:45:05.392Z,9.10
2018-10-01T23:47:37.294Z,9.50
2018-10-01T23:50:07.112Z,9.50
2018-10-01T23:52:36.714Z,10.57
2018-10-01T23:55:07.101Z,9.50
2018-10-01T23:57:36.751Z,9.77
